sensor_id;sensor_type;location;lat;lon;timestamp;P1;durP1;ratioP1;P2;durP2;ratioP2
32611;SDS011;19030;49.478;8.986;2024-03-02T00:01:25;18.10;;;15.77;;
32611;SDS011;19030;49.478;8.986;2024-03-02T00:03:26;18.98;;;16.92;;
32611;SDS011;19030;49.478;8.986;2024-03-02T00:05:26;18.30;;;15.85;;
32611;SDS011;19030;49.478;8.986;2024-03-02T00:07:27;16.52;;;14.77;;
32611;SDS011;19030;49.478;8.986;2024-03-02T00:09:28;17.48;;;15.68;;
32611;SDS011;19030;49.478;8.986;2024-03-02T00:11:29;16.70;;;15.00;;
32611;SDS011;19030;49.478;8.986;2024-03-02T00:13:30;17.42;;;15.73;;
32611;SDS011;19030;49.478;8.986;2024-03-02T00:15:42;17.85;;;16.00;;
32611;SDS011;19030;49.478;8.986;2024-03-02T00:17:46;17.98;;;16.27;;
32611;SDS011;19030;49.478;8.986;2024-03-02T00:19:47;18.38;;;16.50;;
32611;SDS011;19030;49.478;8.986;2024-03-02T00:21:48;20.17;;;18.05;;
32611;SDS011;19030;49.478;8.986;2024-03-02T00:23:49;19.52;;;17.60;;
32611;SDS011;19030;49.478;8.986;2024-03-02T00:25:53;19.50;;;17.70;;
32611;SDS011;19030;49.478;8.986;2024-03-02T00:27:54;19.92;;;17.80;;
32611;SDS011;19030;49.478;8.986;2024-03-02T00:29:55;20.30;;;18.20;;
32611;SDS011;19030;49.478;8.986;2024-03-02T00:31:57;19.30;;;17.60;;
32611;SDS011;19030;49.478;8.986;2024-03-02T00:33:58;18.77;;;16.98;;
32611;SDS011;19030;49.478;8.986;2024-03-02T00:36:03;19.30;;;17.45;;
32611;SDS011;19030;49.478;8.986;2024-03-02T00:38:04;18.90;;;17.10;;
32611;SDS011;19030;49.478;8.986;2024-03-02T00:40:06;18.85;;;17.05;;
32611;SDS011;19030;49.478;8.986;2024-03-02T00:42:08;18.83;;;17.10;;
32611;SDS011;19030;49.478;8.986;2024-03-02T00:44:12;19.45;;;17.55;;
32611;SDS011;19030;49.478;8.986;2024-03-02T00:46:16;19.05;;;17.25;;
32611;SDS011;19030;49.478;8.986;2024-03-02T00:48:18;19.52;;;17.58;;
32611;SDS011;19030;49.478;8.986;2024-03-02T00:50:19;19.17;;;17.38;;
32611;SDS011;19030;49.478;8.986;2024-03-02T00:52:20;19.90;;;17.90;;
32611;SDS011;19030;49.478;8.986;2024-03-02T00:54:21;18.88;;;17.15;;
32611;SDS011;19030;49.478;8.986;2024-03-02T00:56:24;19.73;;;17.88;;
32611;SDS011;19030;49.478;8.986;2024-03-02T00:58:26;20.33;;;18.48;;
32611;SDS011;19030;49.478;8.986;2024-03-02T01:00:26;18.90;;;17.00;;
32611;SDS011;19030;49.478;8.986;2024-03-02T01:02:27;19.52;;;17.52;;
32611;SDS011;19030;49.478;8.986;2024-03-02T01:04:29;19.15;;;17.20;;
32611;SDS011;19030;49.478;8.986;2024-03-02T01:06:30;18.40;;;16.70;;
32611;SDS011;19030;49.478;8.986;2024-03-02T01:08:30;19.65;;;17.75;;
32611;SDS011;19030;49.478;8.986;2024-03-02T01:10:31;17.98;;;16.17;;
32611;SDS011;19030;49.478;8.986;2024-03-02T01:12:31;18.90;;;16.10;;
32611;SDS011;19030;49.478;8.986;2024-03-02T01:14:32;18.17;;;16.27;;
32611;SDS011;19030;49.478;8.986;2024-03-02T01:16:32;18.05;;;15.98;;
32611;SDS011;19030;49.478;8.986;2024-03-02T01:18:33;18.98;;;17.02;;
32611;SDS011;19030;49.478;8.986;2024-03-02T01:20:34;18.13;;;16.42;;
32611;SDS011;19030;49.478;8.986;2024-03-02T01:22:34;18.65;;;16.40;;
32611;SDS011;19030;49.478;8.986;2024-03-02T01:24:35;18.23;;;16.25;;
32611;SDS011;19030;49.478;8.986;2024-03-02T01:26:36;17.67;;;15.88;;
32611;SDS011;19030;49.478;8.986;2024-03-02T01:28:36;18.23;;;16.33;;
32611;SDS011;19030;49.478;8.986;2024-03-02T01:30:37;17.52;;;15.82;;
32611;SDS011;19030;49.478;8.986;2024-03-02T01:32:38;18.38;;;16.10;;
32611;SDS011;19030;49.478;8.986;2024-03-02T01:34:38;16.90;;;15.10;;
32611;SDS011;19030;49.478;8.986;2024-03-02T01:36:39;17.50;;;15.80;;
32611;SDS011;19030;49.478;8.986;2024-03-02T01:38:40;17.52;;;15.73;;
32611;SDS011;19030;49.478;8.986;2024-03-02T01:40:41;17.92;;;16.23;;
32611;SDS011;19030;49.478;8.986;2024-03-02T01:42:44;18.42;;;16.60;;
32611;SDS011;19030;49.478;8.986;2024-03-02T01:44:44;18.05;;;16.25;;
32611;SDS011;19030;49.478;8.986;2024-03-02T01:46:45;19.20;;;16.70;;
32611;SDS011;19030;49.478;8.986;2024-03-02T01:48:46;19.50;;;16.92;;
32611;SDS011;19030;49.478;8.986;2024-03-02T01:50:47;18.92;;;16.60;;
32611;SDS011;19030;49.478;8.986;2024-03-02T01:52:48;18.50;;;16.65;;
32611;SDS011;19030;49.478;8.986;2024-03-02T01:54:48;21.00;;;17.73;;
32611;SDS011;19030;49.478;8.986;2024-03-02T01:56:49;17.90;;;16.08;;
32611;SDS011;19030;49.478;8.986;2024-03-02T01:58:50;19.98;;;16.05;;
32611;SDS011;19030;49.478;8.986;2024-03-02T02:00:50;17.25;;;15.60;;
32611;SDS011;19030;49.478;8.986;2024-03-02T02:02:51;17.38;;;15.15;;
32611;SDS011;19030;49.478;8.986;2024-03-02T02:04:52;16.88;;;15.07;;
32611;SDS011;19030;49.478;8.986;2024-03-02T02:06:53;16.42;;;14.82;;
32611;SDS011;19030;49.478;8.986;2024-03-02T02:08:54;17.25;;;15.55;;
32611;SDS011;19030;49.478;8.986;2024-03-02T02:10:54;16.60;;;14.82;;
32611;SDS011;19030;49.478;8.986;2024-03-02T02:12:55;16.63;;;14.88;;
32611;SDS011;19030;49.478;8.986;2024-03-02T02:14:55;15.88;;;14.23;;
32611;SDS011;19030;49.478;8.986;2024-03-02T02:16:56;15.88;;;13.85;;
32611;SDS011;19030;49.478;8.986;2024-03-02T02:18:57;17.60;;;14.20;;
32611;SDS011;19030;49.478;8.986;2024-03-02T02:20:57;18.00;;;14.07;;
32611;SDS011;19030;49.478;8.986;2024-03-02T02:22:58;16.42;;;13.18;;
32611;SDS011;19030;49.478;8.986;2024-03-02T02:25:00;15.25;;;13.35;;
32611;SDS011;19030;49.478;8.986;2024-03-02T02:27:00;17.98;;;13.43;;
32611;SDS011;19030;49.478;8.986;2024-03-02T02:29:01;17.30;;;14.43;;
32611;SDS011;19030;49.478;8.986;2024-03-02T02:31:02;17.83;;;13.90;;
32611;SDS011;19030;49.478;8.986;2024-03-02T02:33:03;14.45;;;12.95;;
32611;SDS011;19030;49.478;8.986;2024-03-02T02:35:03;15.93;;;13.65;;
32611;SDS011;19030;49.478;8.986;2024-03-02T02:37:05;19.15;;;14.93;;
32611;SDS011;19030;49.478;8.986;2024-03-02T02:39:05;15.48;;;13.88;;
32611;SDS011;19030;49.478;8.986;2024-03-02T02:41:10;16.55;;;14.85;;
32611;SDS011;19030;49.478;8.986;2024-03-02T02:43:11;17.33;;;15.38;;
32611;SDS011;19030;49.478;8.986;2024-03-02T02:45:11;17.05;;;15.25;;
32611;SDS011;19030;49.478;8.986;2024-03-02T02:47:14;16.50;;;14.80;;
32611;SDS011;19030;49.478;8.986;2024-03-02T02:49:14;16.83;;;15.18;;
32611;SDS011;19030;49.478;8.986;2024-03-02T02:51:15;16.45;;;14.57;;
32611;SDS011;19030;49.478;8.986;2024-03-02T02:53:16;16.40;;;14.80;;
32611;SDS011;19030;49.478;8.986;2024-03-02T02:55:17;16.55;;;14.73;;
32611;SDS011;19030;49.478;8.986;2024-03-02T02:57:18;17.35;;;15.55;;
32611;SDS011;19030;49.478;8.986;2024-03-02T02:59:18;18.40;;;16.52;;
32611;SDS011;19030;49.478;8.986;2024-03-02T03:01:19;17.65;;;15.48;;
32611;SDS011;19030;49.478;8.986;2024-03-02T03:03:19;18.20;;;15.55;;
32611;SDS011;19030;49.478;8.986;2024-03-02T03:05:20;16.80;;;15.07;;
32611;SDS011;19030;49.478;8.986;2024-03-02T03:07:20;17.35;;;15.55;;
32611;SDS011;19030;49.478;8.986;2024-03-02T03:09:21;17.67;;;15.88;;
32611;SDS011;19030;49.478;8.986;2024-03-02T03:11:21;17.67;;;15.82;;
32611;SDS011;19030;49.478;8.986;2024-03-02T03:13:22;16.88;;;15.02;;
32611;SDS011;19030;49.478;8.986;2024-03-02T03:15:23;17.13;;;13.93;;
32611;SDS011;19030;49.478;8.986;2024-03-02T03:17:23;16.38;;;14.35;;
32611;SDS011;19030;49.478;8.986;2024-03-02T03:19:24;16.70;;;14.63;;
32611;SDS011;19030;49.478;8.986;2024-03-02T03:21:25;17.60;;;14.55;;
32611;SDS011;19030;49.478;8.986;2024-03-02T03:23:25;20.55;;;15.63;;
32611;SDS011;19030;49.478;8.986;2024-03-02T03:25:26;16.90;;;15.13;;
32611;SDS011;19030;49.478;8.986;2024-03-02T03:27:26;19.50;;;15.75;;
32611;SDS011;19030;49.478;8.986;2024-03-02T03:29:27;18.08;;;15.65;;
32611;SDS011;19030;49.478;8.986;2024-03-02T03:31:28;18.15;;;15.57;;
32611;SDS011;19030;49.478;8.986;2024-03-02T03:33:29;18.15;;;15.20;;
32611;SDS011;19030;49.478;8.986;2024-03-02T03:35:30;16.88;;;15.07;;
32611;SDS011;19030;49.478;8.986;2024-03-02T03:37:30;16.05;;;14.30;;
32611;SDS011;19030;49.478;8.986;2024-03-02T03:39:34;19.40;;;14.23;;
32611;SDS011;19030;49.478;8.986;2024-03-02T03:41:36;18.25;;;15.18;;
32611;SDS011;19030;49.478;8.986;2024-03-02T03:43:36;16.88;;;15.07;;
32611;SDS011;19030;49.478;8.986;2024-03-02T03:45:37;16.35;;;14.40;;
32611;SDS011;19030;49.478;8.986;2024-03-02T03:47:38;16.55;;;14.63;;
32611;SDS011;19030;49.478;8.986;2024-03-02T03:49:38;16.77;;;14.32;;
32611;SDS011;19030;49.478;8.986;2024-03-02T03:51:39;15.77;;;13.52;;
32611;SDS011;19030;49.478;8.986;2024-03-02T03:53:39;17.40;;;15.35;;
32611;SDS011;19030;49.478;8.986;2024-03-02T03:55:40;17.90;;;15.82;;
32611;SDS011;19030;49.478;8.986;2024-03-02T03:57:41;18.15;;;14.35;;
32611;SDS011;19030;49.478;8.986;2024-03-02T03:59:41;15.85;;;13.02;;
32611;SDS011;19030;49.478;8.986;2024-03-02T04:01:42;17.42;;;12.80;;
32611;SDS011;19030;49.478;8.986;2024-03-02T04:03:43;13.95;;;10.90;;
32611;SDS011;19030;49.478;8.986;2024-03-02T04:05:43;16.58;;;9.27;;
32611;SDS011;19030;49.478;8.986;2024-03-02T04:07:44;13.73;;;8.25;;
32611;SDS011;19030;49.478;8.986;2024-03-02T04:09:44;13.73;;;7.97;;
32611;SDS011;19030;49.478;8.986;2024-03-02T04:11:45;14.75;;;8.50;;
32611;SDS011;19030;49.478;8.986;2024-03-02T04:13:46;15.93;;;8.77;;
32611;SDS011;19030;49.478;8.986;2024-03-02T04:15:46;16.65;;;9.05;;
32611;SDS011;19030;49.478;8.986;2024-03-02T04:17:47;13.45;;;7.47;;
32611;SDS011;19030;49.478;8.986;2024-03-02T04:19:47;17.52;;;13.27;;
32611;SDS011;19030;49.478;8.986;2024-03-02T04:21:48;18.67;;;13.60;;
32611;SDS011;19030;49.478;8.986;2024-03-02T04:23:48;21.40;;;13.38;;
32611;SDS011;19030;49.478;8.986;2024-03-02T04:25:49;16.80;;;11.55;;
32611;SDS011;19030;49.478;8.986;2024-03-02T04:27:50;14.20;;;9.30;;
32611;SDS011;19030;49.478;8.986;2024-03-02T04:29:50;15.75;;;8.40;;
32611;SDS011;19030;49.478;8.986;2024-03-02T04:31:51;15.32;;;8.65;;
32611;SDS011;19030;49.478;8.986;2024-03-02T04:33:51;15.95;;;9.30;;
32611;SDS011;19030;49.478;8.986;2024-03-02T04:35:52;17.17;;;8.88;;
32611;SDS011;19030;49.478;8.986;2024-03-02T04:37:52;15.18;;;8.77;;
32611;SDS011;19030;49.478;8.986;2024-03-02T04:39:53;16.73;;;8.75;;
32611;SDS011;19030;49.478;8.986;2024-03-02T04:41:54;14.93;;;8.40;;
32611;SDS011;19030;49.478;8.986;2024-03-02T04:43:54;15.27;;;8.65;;
32611;SDS011;19030;49.478;8.986;2024-03-02T04:45:55;22.13;;;9.88;;
32611;SDS011;19030;49.478;8.986;2024-03-02T04:47:55;22.58;;;10.55;;
32611;SDS011;19030;49.478;8.986;2024-03-02T04:49:56;18.20;;;9.48;;
32611;SDS011;19030;49.478;8.986;2024-03-02T04:51:56;19.80;;;10.05;;
32611;SDS011;19030;49.478;8.986;2024-03-02T04:53:57;20.83;;;10.68;;
32611;SDS011;19030;49.478;8.986;2024-03-02T04:55:57;18.73;;;10.52;;
32611;SDS011;19030;49.478;8.986;2024-03-02T04:58:18;16.95;;;9.68;;
32611;SDS011;19030;49.478;8.986;2024-03-02T05:00:19;22.63;;;10.52;;
32611;SDS011;19030;49.478;8.986;2024-03-02T05:02:19;18.63;;;10.10;;
32611;SDS011;19030;49.478;8.986;2024-03-02T05:04:20;18.90;;;10.50;;
32611;SDS011;19030;49.478;8.986;2024-03-02T05:06:20;19.10;;;11.10;;
32611;SDS011;19030;49.478;8.986;2024-03-02T05:08:21;23.30;;;10.30;;
32611;SDS011;19030;49.478;8.986;2024-03-02T05:10:21;20.38;;;10.35;;
32611;SDS011;19030;49.478;8.986;2024-03-02T05:12:22;18.33;;;10.77;;
32611;SDS011;19030;49.478;8.986;2024-03-02T05:14:41;20.40;;;14.18;;
32611;SDS011;19030;49.478;8.986;2024-03-02T05:16:41;18.10;;;14.98;;
32611;SDS011;19030;49.478;8.986;2024-03-02T05:18:42;20.17;;;14.73;;
32611;SDS011;19030;49.478;8.986;2024-03-02T05:20:42;19.60;;;14.82;;
32611;SDS011;19030;49.478;8.986;2024-03-02T05:22:43;21.20;;;14.10;;
32611;SDS011;19030;49.478;8.986;2024-03-02T05:24:44;19.33;;;11.48;;
32611;SDS011;19030;49.478;8.986;2024-03-02T05:26:44;18.77;;;10.57;;
32611;SDS011;19030;49.478;8.986;2024-03-02T05:28:45;22.00;;;13.88;;
32611;SDS011;19030;49.478;8.986;2024-03-02T05:30:45;18.33;;;13.13;;
32611;SDS011;19030;49.478;8.986;2024-03-02T05:32:47;17.25;;;12.32;;
32611;SDS011;19030;49.478;8.986;2024-03-02T05:34:48;19.13;;;12.43;;
32611;SDS011;19030;49.478;8.986;2024-03-02T05:36:48;20.80;;;11.80;;
32611;SDS011;19030;49.478;8.986;2024-03-02T05:38:49;18.92;;;11.80;;
32611;SDS011;19030;49.478;8.986;2024-03-02T05:40:49;19.38;;;11.85;;
32611;SDS011;19030;49.478;8.986;2024-03-02T05:42:50;21.80;;;12.50;;
32611;SDS011;19030;49.478;8.986;2024-03-02T05:44:50;17.77;;;10.55;;
32611;SDS011;19030;49.478;8.986;2024-03-02T05:46:51;21.23;;;11.23;;
32611;SDS011;19030;49.478;8.986;2024-03-02T05:48:51;17.73;;;10.70;;
32611;SDS011;19030;49.478;8.986;2024-03-02T05:50:52;18.38;;;10.27;;
32611;SDS011;19030;49.478;8.986;2024-03-02T05:52:53;20.00;;;9.90;;
32611;SDS011;19030;49.478;8.986;2024-03-02T05:54:53;19.00;;;11.05;;
32611;SDS011;19030;49.478;8.986;2024-03-02T05:56:54;19.65;;;10.98;;
32611;SDS011;19030;49.478;8.986;2024-03-02T05:58:54;25.42;;;13.63;;
32611;SDS011;19030;49.478;8.986;2024-03-02T06:01:08;18.30;;;11.80;;
32611;SDS011;19030;49.478;8.986;2024-03-02T06:03:09;19.92;;;11.18;;
32611;SDS011;19030;49.478;8.986;2024-03-02T06:05:09;16.63;;;10.10;;
32611;SDS011;19030;49.478;8.986;2024-03-02T06:07:10;19.38;;;10.57;;
32611;SDS011;19030;49.478;8.986;2024-03-02T06:09:10;19.73;;;10.63;;
32611;SDS011;19030;49.478;8.986;2024-03-02T06:11:14;18.85;;;10.60;;
32611;SDS011;19030;49.478;8.986;2024-03-02T06:13:14;21.55;;;10.80;;
32611;SDS011;19030;49.478;8.986;2024-03-02T06:15:15;19.92;;;10.77;;
32611;SDS011;19030;49.478;8.986;2024-03-02T06:17:15;22.05;;;12.52;;
32611;SDS011;19030;49.478;8.986;2024-03-02T06:19:16;19.98;;;10.65;;
32611;SDS011;19030;49.478;8.986;2024-03-02T06:21:17;19.83;;;10.20;;
32611;SDS011;19030;49.478;8.986;2024-03-02T06:23:18;20.05;;;11.43;;
32611;SDS011;19030;49.478;8.986;2024-03-02T06:25:19;20.95;;;11.05;;
32611;SDS011;19030;49.478;8.986;2024-03-02T06:27:19;20.60;;;11.38;;
32611;SDS011;19030;49.478;8.986;2024-03-02T06:29:20;19.00;;;10.95;;
32611;SDS011;19030;49.478;8.986;2024-03-02T06:31:21;22.38;;;11.13;;
32611;SDS011;19030;49.478;8.986;2024-03-02T06:33:22;19.63;;;11.07;;
32611;SDS011;19030;49.478;8.986;2024-03-02T06:35:22;19.90;;;11.15;;
32611;SDS011;19030;49.478;8.986;2024-03-02T06:37:23;18.25;;;10.13;;
32611;SDS011;19030;49.478;8.986;2024-03-02T06:39:24;18.67;;;10.68;;
32611;SDS011;19030;49.478;8.986;2024-03-02T06:41:25;18.85;;;10.10;;
32611;SDS011;19030;49.478;8.986;2024-03-02T06:43:26;20.40;;;10.93;;
32611;SDS011;19030;49.478;8.986;2024-03-02T06:45:27;25.13;;;12.88;;
32611;SDS011;19030;49.478;8.986;2024-03-02T06:47:28;17.83;;;10.23;;
32611;SDS011;19030;49.478;8.986;2024-03-02T06:49:30;19.05;;;9.25;;
32611;SDS011;19030;49.478;8.986;2024-03-02T06:51:30;18.02;;;9.50;;
32611;SDS011;19030;49.478;8.986;2024-03-02T06:53:31;17.67;;;9.75;;
32611;SDS011;19030;49.478;8.986;2024-03-02T06:55:33;20.48;;;10.98;;
32611;SDS011;19030;49.478;8.986;2024-03-02T06:57:34;17.98;;;11.00;;
32611;SDS011;19030;49.478;8.986;2024-03-02T06:59:34;17.85;;;10.77;;
32611;SDS011;19030;49.478;8.986;2024-03-02T07:01:35;19.48;;;11.52;;
32611;SDS011;19030;49.478;8.986;2024-03-02T07:03:36;19.48;;;12.60;;
32611;SDS011;19030;49.478;8.986;2024-03-02T07:05:36;19.15;;;11.68;;
32611;SDS011;19030;49.478;8.986;2024-03-02T07:07:37;21.35;;;11.63;;
32611;SDS011;19030;49.478;8.986;2024-03-02T07:09:38;17.40;;;9.40;;
32611;SDS011;19030;49.478;8.986;2024-03-02T07:11:38;15.65;;;9.05;;
32611;SDS011;19030;49.478;8.986;2024-03-02T07:13:39;20.52;;;10.85;;
32611;SDS011;19030;49.478;8.986;2024-03-02T07:15:39;19.20;;;10.50;;
32611;SDS011;19030;49.478;8.986;2024-03-02T07:17:54;16.48;;;9.98;;
32611;SDS011;19030;49.478;8.986;2024-03-02T07:19:55;18.95;;;10.73;;
32611;SDS011;19030;49.478;8.986;2024-03-02T07:21:56;19.50;;;10.77;;
32611;SDS011;19030;49.478;8.986;2024-03-02T07:23:57;18.52;;;10.40;;
32611;SDS011;19030;49.478;8.986;2024-03-02T07:25:57;18.90;;;10.95;;
32611;SDS011;19030;49.478;8.986;2024-03-02T07:27:59;18.52;;;11.32;;
32611;SDS011;19030;49.478;8.986;2024-03-02T07:30:01;18.13;;;10.65;;
32611;SDS011;19030;49.478;8.986;2024-03-02T07:32:05;20.73;;;11.43;;
32611;SDS011;19030;49.478;8.986;2024-03-02T07:34:06;18.85;;;11.15;;
32611;SDS011;19030;49.478;8.986;2024-03-02T07:36:07;18.38;;;11.38;;
32611;SDS011;19030;49.478;8.986;2024-03-02T07:38:08;20.00;;;10.77;;
32611;SDS011;19030;49.478;8.986;2024-03-02T07:40:09;21.23;;;12.07;;
32611;SDS011;19030;49.478;8.986;2024-03-02T07:42:14;21.02;;;10.95;;
32611;SDS011;19030;49.478;8.986;2024-03-02T07:44:15;19.77;;;11.60;;
32611;SDS011;19030;49.478;8.986;2024-03-02T07:46:15;18.83;;;11.38;;
32611;SDS011;19030;49.478;8.986;2024-03-02T07:48:16;19.58;;;11.30;;
32611;SDS011;19030;49.478;8.986;2024-03-02T07:50:17;21.17;;;11.68;;
32611;SDS011;19030;49.478;8.986;2024-03-02T07:52:17;20.73;;;12.00;;
32611;SDS011;19030;49.478;8.986;2024-03-02T07:54:18;20.17;;;11.45;;
32611;SDS011;19030;49.478;8.986;2024-03-02T07:56:18;19.73;;;12.10;;
32611;SDS011;19030;49.478;8.986;2024-03-02T07:58:22;20.77;;;12.18;;
32611;SDS011;19030;49.478;8.986;2024-03-02T08:00:22;18.75;;;11.15;;
32611;SDS011;19030;49.478;8.986;2024-03-02T08:02:23;21.52;;;11.57;;
32611;SDS011;19030;49.478;8.986;2024-03-02T08:04:24;19.10;;;11.90;;
32611;SDS011;19030;49.478;8.986;2024-03-02T08:06:25;23.40;;;13.80;;
32611;SDS011;19030;49.478;8.986;2024-03-02T08:08:27;20.85;;;12.60;;
32611;SDS011;19030;49.478;8.986;2024-03-02T08:10:28;18.73;;;11.88;;
32611;SDS011;19030;49.478;8.986;2024-03-02T08:12:28;42.17;;;25.83;;
32611;SDS011;19030;49.478;8.986;2024-03-02T08:14:29;24.85;;;15.27;;
32611;SDS011;19030;49.478;8.986;2024-03-02T08:16:29;27.30;;;16.50;;
32611;SDS011;19030;49.478;8.986;2024-03-02T08:18:30;25.00;;;15.77;;
32611;SDS011;19030;49.478;8.986;2024-03-02T08:20:30;19.02;;;12.30;;
32611;SDS011;19030;49.478;8.986;2024-03-02T08:22:31;21.33;;;12.52;;
32611;SDS011;19030;49.478;8.986;2024-03-02T08:24:32;17.23;;;10.65;;
32611;SDS011;19030;49.478;8.986;2024-03-02T08:26:32;19.70;;;11.85;;
32611;SDS011;19030;49.478;8.986;2024-03-02T08:28:34;20.60;;;12.40;;
32611;SDS011;19030;49.478;8.986;2024-03-02T08:30:34;18.00;;;11.18;;
32611;SDS011;19030;49.478;8.986;2024-03-02T08:32:35;22.83;;;12.40;;
32611;SDS011;19030;49.478;8.986;2024-03-02T08:34:36;21.00;;;12.30;;
32611;SDS011;19030;49.478;8.986;2024-03-02T08:36:36;15.93;;;10.40;;
32611;SDS011;19030;49.478;8.986;2024-03-02T08:38:38;16.58;;;10.98;;
32611;SDS011;19030;49.478;8.986;2024-03-02T08:40:39;25.85;;;18.98;;
32611;SDS011;19030;49.478;8.986;2024-03-02T08:42:39;14.18;;;9.45;;
32611;SDS011;19030;49.478;8.986;2024-03-02T08:44:40;23.65;;;15.35;;
32611;SDS011;19030;49.478;8.986;2024-03-02T08:46:40;23.63;;;18.75;;
32611;SDS011;19030;49.478;8.986;2024-03-02T08:48:41;19.63;;;17.52;;
32611;SDS011;19030;49.478;8.986;2024-03-02T08:50:42;17.55;;;15.75;;
32611;SDS011;19030;49.478;8.986;2024-03-02T08:52:42;15.80;;;14.05;;
32611;SDS011;19030;49.478;8.986;2024-03-02T08:54:43;16.55;;;14.50;;
32611;SDS011;19030;49.478;8.986;2024-03-02T08:56:43;18.25;;;16.45;;
32611;SDS011;19030;49.478;8.986;2024-03-02T08:58:44;17.42;;;15.73;;
32611;SDS011;19030;49.478;8.986;2024-03-02T09:00:44;19.05;;;17.25;;
32611;SDS011;19030;49.478;8.986;2024-03-02T09:02:47;20.88;;;18.77;;
32611;SDS011;19030;49.478;8.986;2024-03-02T09:04:48;23.30;;;21.25;;
32611;SDS011;19030;49.478;8.986;2024-03-02T09:06:49;24.73;;;22.33;;
32611;SDS011;19030;49.478;8.986;2024-03-02T09:08:50;23.42;;;21.25;;
32611;SDS011;19030;49.478;8.986;2024-03-02T09:10:52;23.60;;;21.60;;
32611;SDS011;19030;49.478;8.986;2024-03-02T09:12:52;17.88;;;16.02;;
32611;SDS011;19030;49.478;8.986;2024-03-02T09:14:53;16.17;;;14.57;;
32611;SDS011;19030;49.478;8.986;2024-03-02T09:16:53;17.38;;;15.65;;
32611;SDS011;19030;49.478;8.986;2024-03-02T09:18:54;13.85;;;9.93;;
32611;SDS011;19030;49.478;8.986;2024-03-02T09:20:55;13.30;;;9.95;;
32611;SDS011;19030;49.478;8.986;2024-03-02T09:22:55;12.98;;;10.13;;
32611;SDS011;19030;49.478;8.986;2024-03-02T09:24:56;13.98;;;9.95;;
32611;SDS011;19030;49.478;8.986;2024-03-02T09:26:56;15.43;;;11.05;;
32611;SDS011;19030;49.478;8.986;2024-03-02T09:28:57;12.48;;;9.82;;
32611;SDS011;19030;49.478;8.986;2024-03-02T09:30:57;12.57;;;9.93;;
32611;SDS011;19030;49.478;8.986;2024-03-02T09:32:58;12.38;;;9.82;;
32611;SDS011;19030;49.478;8.986;2024-03-02T09:34:59;10.50;;;8.38;;
32611;SDS011;19030;49.478;8.986;2024-03-02T09:36:59;11.75;;;8.85;;
32611;SDS011;19030;49.478;8.986;2024-03-02T09:39:00;10.60;;;8.57;;
32611;SDS011;19030;49.478;8.986;2024-03-02T09:41:00;12.38;;;9.63;;
32611;SDS011;19030;49.478;8.986;2024-03-02T09:43:01;10.98;;;8.60;;
32611;SDS011;19030;49.478;8.986;2024-03-02T09:45:03;13.93;;;8.85;;
32611;SDS011;19030;49.478;8.986;2024-03-02T09:47:06;12.85;;;8.50;;
32611;SDS011;19030;49.478;8.986;2024-03-02T09:49:07;10.95;;;8.45;;
32611;SDS011;19030;49.478;8.986;2024-03-02T09:51:08;10.40;;;8.38;;
32611;SDS011;19030;49.478;8.986;2024-03-02T09:53:09;10.55;;;8.65;;
32611;SDS011;19030;49.478;8.986;2024-03-02T09:55:11;11.60;;;8.85;;
32611;SDS011;19030;49.478;8.986;2024-03-02T09:57:12;12.20;;;9.80;;
32611;SDS011;19030;49.478;8.986;2024-03-02T09:59:13;11.70;;;8.38;;
32611;SDS011;19030;49.478;8.986;2024-03-02T10:01:17;12.65;;;9.90;;
32611;SDS011;19030;49.478;8.986;2024-03-02T10:03:18;12.43;;;9.35;;
32611;SDS011;19030;49.478;8.986;2024-03-02T10:05:28;12.02;;;9.15;;
32611;SDS011;19030;49.478;8.986;2024-03-02T10:07:29;11.43;;;8.90;;
32611;SDS011;19030;49.478;8.986;2024-03-02T10:09:29;12.00;;;8.35;;
32611;SDS011;19030;49.478;8.986;2024-03-02T10:11:30;10.35;;;8.55;;
32611;SDS011;19030;49.478;8.986;2024-03-02T10:13:33;10.50;;;8.73;;
32611;SDS011;19030;49.478;8.986;2024-03-02T10:15:35;11.38;;;8.90;;
32611;SDS011;19030;49.478;8.986;2024-03-02T10:17:37;10.50;;;8.50;;
32611;SDS011;19030;49.478;8.986;2024-03-02T10:19:38;9.57;;;8.07;;
32611;SDS011;19030;49.478;8.986;2024-03-02T10:21:39;10.52;;;8.30;;
32611;SDS011;19030;49.478;8.986;2024-03-02T10:23:41;10.90;;;7.95;;
32611;SDS011;19030;49.478;8.986;2024-03-02T10:25:41;9.90;;;7.78;;
32611;SDS011;19030;49.478;8.986;2024-03-02T10:27:43;9.98;;;8.43;;
32611;SDS011;19030;49.478;8.986;2024-03-02T10:29:47;9.82;;;8.30;;
32611;SDS011;19030;49.478;8.986;2024-03-02T10:31:47;10.20;;;8.05;;
32611;SDS011;19030;49.478;8.986;2024-03-02T10:33:48;10.90;;;8.02;;
32611;SDS011;19030;49.478;8.986;2024-03-02T10:35:49;9.80;;;7.50;;
32611;SDS011;19030;49.478;8.986;2024-03-02T10:37:50;10.57;;;7.43;;
32611;SDS011;19030;49.478;8.986;2024-03-02T10:39:52;10.95;;;7.97;;
32611;SDS011;19030;49.478;8.986;2024-03-02T10:41:52;9.85;;;7.30;;
32611;SDS011;19030;49.478;8.986;2024-03-02T10:43:54;10.38;;;7.88;;
32611;SDS011;19030;49.478;8.986;2024-03-02T10:45:59;8.85;;;7.38;;
32611;SDS011;19030;49.478;8.986;2024-03-02T10:48:00;10.93;;;7.30;;
32611;SDS011;19030;49.478;8.986;2024-03-02T10:50:02;9.85;;;7.50;;
32611;SDS011;19030;49.478;8.986;2024-03-02T10:52:08;9.00;;;7.38;;
32611;SDS011;19030;49.478;8.986;2024-03-02T10:54:09;8.93;;;7.35;;
32611;SDS011;19030;49.478;8.986;2024-03-02T10:56:09;9.27;;;7.65;;
32611;SDS011;19030;49.478;8.986;2024-03-02T10:58:13;9.93;;;7.50;;
32611;SDS011;19030;49.478;8.986;2024-03-02T11:00:15;9.60;;;7.30;;
32611;SDS011;19030;49.478;8.986;2024-03-02T11:02:15;10.52;;;7.55;;
32611;SDS011;19030;49.478;8.986;2024-03-02T11:04:19;8.43;;;7.00;;
32611;SDS011;19030;49.478;8.986;2024-03-02T11:06:20;8.70;;;6.80;;
32611;SDS011;19030;49.478;8.986;2024-03-02T11:08:23;9.52;;;7.20;;
32611;SDS011;19030;49.478;8.986;2024-03-02T11:10:27;10.18;;;7.32;;
32611;SDS011;19030;49.478;8.986;2024-03-02T11:12:31;8.82;;;7.40;;
32611;SDS011;19030;49.478;8.986;2024-03-02T11:14:41;9.63;;;7.03;;
32611;SDS011;19030;49.478;8.986;2024-03-02T11:16:45;7.80;;;6.45;;
32611;SDS011;19030;49.478;8.986;2024-03-02T11:18:46;8.15;;;6.65;;
32611;SDS011;19030;49.478;8.986;2024-03-02T11:20:49;8.27;;;6.40;;
32611;SDS011;19030;49.478;8.986;2024-03-02T11:22:50;8.38;;;6.50;;
32611;SDS011;19030;49.478;8.986;2024-03-02T11:24:51;9.45;;;6.47;;
32611;SDS011;19030;49.478;8.986;2024-03-02T11:26:52;8.80;;;6.43;;
32611;SDS011;19030;49.478;8.986;2024-03-02T11:28:54;8.38;;;6.35;;
32611;SDS011;19030;49.478;8.986;2024-03-02T11:30:56;8.75;;;6.70;;
32611;SDS011;19030;49.478;8.986;2024-03-02T11:32:56;8.25;;;6.57;;
32611;SDS011;19030;49.478;8.986;2024-03-02T11:34:57;8.63;;;6.15;;
32611;SDS011;19030;49.478;8.986;2024-03-02T11:36:58;11.30;;;7.63;;
32611;SDS011;19030;49.478;8.986;2024-03-02T11:38:59;9.43;;;6.45;;
32611;SDS011;19030;49.478;8.986;2024-03-02T11:41:02;8.63;;;6.38;;
32611;SDS011;19030;49.478;8.986;2024-03-02T11:43:07;7.75;;;6.03;;
32611;SDS011;19030;49.478;8.986;2024-03-02T11:45:08;6.95;;;5.60;;
32611;SDS011;19030;49.478;8.986;2024-03-02T11:47:10;7.88;;;5.80;;
32611;SDS011;19030;49.478;8.986;2024-03-02T11:49:14;7.88;;;5.90;;
32611;SDS011;19030;49.478;8.986;2024-03-02T11:51:15;7.10;;;5.32;;
32611;SDS011;19030;49.478;8.986;2024-03-02T11:53:16;6.75;;;5.57;;